sensor_id;sensor_type;location;lat;lon;timestamp;temperature;humidity
19567;DHT22;9930;49.240;8.548;2023-05-16T00:01:21;17.50;68.90
19567;DHT22;9930;49.240;8.548;2023-05-16T00:03:49;17.50;68.90
19567;DHT22;9930;49.240;8.548;2023-05-16T00:06:15;17.40;69.00
19567;DHT22;9930;49.240;8.548;2023-05-16T00:08:41;17.40;69.20
19567;DHT22;9930;49.240;8.548;2023-05-16T00:11:09;17.40;69.30
19567;DHT22;9930;49.240;8.548;2023-05-16T00:13:34;17.40;69.50
19567;DHT22;9930;49.240;8.548;2023-05-16T00:16:01;17.40;69.50
19567;DHT22;9930;49.240;8.548;2023-05-16T00:18:29;17.40;69.50
19567;DHT22;9930;49.240;8.548;2023-05-16T00:20:55;17.30;69.60
19567;DHT22;9930;49.240;8.548;2023-05-16T00:23:22;17.40;69.70
19567;DHT22;9930;49.240;8.548;2023-05-16T00:25:53;17.30;69.60
19567;DHT22;9930;49.240;8.548;2023-05-16T00:28:19;17.30;69.60
19567;DHT22;9930;49.240;8.548;2023-05-16T00:30:46;17.30;69.70
19567;DHT22;9930;49.240;8.548;2023-05-16T00:33:12;17.30;69.80
19567;DHT22;9930;49.240;8.548;2023-05-16T00:35:40;17.30;69.80
19567;DHT22;9930;49.240;8.548;2023-05-16T00:38:08;17.30;70.00
19567;DHT22;9930;49.240;8.548;2023-05-16T00:40:37;17.30;70.00
19567;DHT22;9930;49.240;8.548;2023-05-16T00:43:06;17.20;69.90
19567;DHT22;9930;49.240;8.548;2023-05-16T00:45:31;17.20;70.10
19567;DHT22;9930;49.240;8.548;2023-05-16T00:47:57;17.20;69.90
19567;DHT22;9930;49.240;8.548;2023-05-16T00:50:25;17.20;70.10
19567;DHT22;9930;49.240;8.548;2023-05-16T00:52:52;17.20;70.10
19567;DHT22;9930;49.240;8.548;2023-05-16T00:55:23;17.20;70.10
19567;DHT22;9930;49.240;8.548;2023-05-16T00:57:49;17.10;70.00
19567;DHT22;9930;49.240;8.548;2023-05-16T01:00:18;17.10;70.20
19567;DHT22;9930;49.240;8.548;2023-05-16T01:02:50;17.10;70.20
19567;DHT22;9930;49.240;8.548;2023-05-16T01:05:18;17.10;70.30
19567;DHT22;9930;49.240;8.548;2023-05-16T01:07:45;17.10;70.30
19567;DHT22;9930;49.240;8.548;2023-05-16T01:10:13;17.10;70.30
19567;DHT22;9930;49.240;8.548;2023-05-16T01:28:22;17.00;70.70
19567;DHT22;9930;49.240;8.548;2023-05-16T01:30:52;17.00;70.60
19567;DHT22;9930;49.240;8.548;2023-05-16T01:33:19;17.00;70.60
19567;DHT22;9930;49.240;8.548;2023-05-16T01:36:12;17.00;70.70
19567;DHT22;9930;49.240;8.548;2023-05-16T01:39:26;17.00;71.10
19567;DHT22;9930;49.240;8.548;2023-05-16T01:42:07;17.00;71.10
19567;DHT22;9930;49.240;8.548;2023-05-16T01:47:40;17.00;71.00
19567;DHT22;9930;49.240;8.548;2023-05-16T01:50:16;17.00;70.90
19567;DHT22;9930;49.240;8.548;2023-05-16T01:52:55;17.00;71.00
19567;DHT22;9930;49.240;8.548;2023-05-16T01:55:41;17.00;71.10
19567;DHT22;9930;49.240;8.548;2023-05-16T01:58:09;16.90;71.20
19567;DHT22;9930;49.240;8.548;2023-05-16T02:00:39;17.00;71.00
19567;DHT22;9930;49.240;8.548;2023-05-16T02:03:09;16.90;71.00
19567;DHT22;9930;49.240;8.548;2023-05-16T02:05:37;17.00;71.00
19567;DHT22;9930;49.240;8.548;2023-05-16T02:08:03;16.90;71.00
19567;DHT22;9930;49.240;8.548;2023-05-16T02:10:29;17.00;71.20
19567;DHT22;9930;49.240;8.548;2023-05-16T02:12:55;16.90;71.00
19567;DHT22;9930;49.240;8.548;2023-05-16T02:15:26;16.90;71.20
19567;DHT22;9930;49.240;8.548;2023-05-16T02:17:54;16.90;71.20
19567;DHT22;9930;49.240;8.548;2023-05-16T02:20:22;16.90;71.40
19567;DHT22;9930;49.240;8.548;2023-05-16T02:22:50;16.90;71.50
19567;DHT22;9930;49.240;8.548;2023-05-16T02:25:15;16.90;71.40
19567;DHT22;9930;49.240;8.548;2023-05-16T02:27:44;16.90;71.70
19567;DHT22;9930;49.240;8.548;2023-05-16T02:30:10;16.90;71.70
19567;DHT22;9930;49.240;8.548;2023-05-16T02:32:39;16.90;71.70
19567;DHT22;9930;49.240;8.548;2023-05-16T02:35:05;16.80;71.50
19567;DHT22;9930;49.240;8.548;2023-05-16T02:37:34;16.90;71.60
19567;DHT22;9930;49.240;8.548;2023-05-16T02:40:03;16.80;71.60
19567;DHT22;9930;49.240;8.548;2023-05-16T02:42:32;16.80;71.80
19567;DHT22;9930;49.240;8.548;2023-05-16T02:44:58;16.80;71.90
19567;DHT22;9930;49.240;8.548;2023-05-16T02:47:26;16.80;72.00
19567;DHT22;9930;49.240;8.548;2023-05-16T02:49:52;16.80;72.80
19567;DHT22;9930;49.240;8.548;2023-05-16T02:52:20;16.70;71.90
19567;DHT22;9930;49.240;8.548;2023-05-16T02:54:46;16.70;72.00
19567;DHT22;9930;49.240;8.548;2023-05-16T02:57:14;16.70;71.80
19567;DHT22;9930;49.240;8.548;2023-05-16T02:59:40;16.70;72.00
19567;DHT22;9930;49.240;8.548;2023-05-16T03:02:06;16.70;72.00
19567;DHT22;9930;49.240;8.548;2023-05-16T03:04:32;16.60;71.80
19567;DHT22;9930;49.240;8.548;2023-05-16T03:06:58;16.60;71.80
19567;DHT22;9930;49.240;8.548;2023-05-16T03:09:24;16.60;71.80
19567;DHT22;9930;49.240;8.548;2023-05-16T03:11:55;16.60;71.90
19567;DHT22;9930;49.240;8.548;2023-05-16T03:14:20;16.60;72.20
19567;DHT22;9930;49.240;8.548;2023-05-16T03:16:46;16.50;72.20
19567;DHT22;9930;49.240;8.548;2023-05-16T03:19:15;16.50;72.20
19567;DHT22;9930;49.240;8.548;2023-05-16T03:21:43;16.50;72.20
19567;DHT22;9930;49.240;8.548;2023-05-16T03:24:09;16.50;72.40
19567;DHT22;9930;49.240;8.548;2023-05-16T03:26:37;16.50;72.50
19567;DHT22;9930;49.240;8.548;2023-05-16T03:29:03;16.50;72.50
19567;DHT22;9930;49.240;8.548;2023-05-16T03:31:29;16.40;72.50
19567;DHT22;9930;49.240;8.548;2023-05-16T03:33:56;16.40;72.40
19567;DHT22;9930;49.240;8.548;2023-05-16T03:36:25;16.40;72.40
19567;DHT22;9930;49.240;8.548;2023-05-16T03:38:52;16.40;72.30
19567;DHT22;9930;49.240;8.548;2023-05-16T03:41:19;16.40;72.40
19567;DHT22;9930;49.240;8.548;2023-05-16T03:43:46;16.40;72.30
19567;DHT22;9930;49.240;8.548;2023-05-16T03:46:14;16.40;72.30
19567;DHT22;9930;49.240;8.548;2023-05-16T03:48:40;16.30;72.20
19567;DHT22;9930;49.240;8.548;2023-05-16T03:51:06;16.30;72.20
19567;DHT22;9930;49.240;8.548;2023-05-16T03:53:34;16.30;72.30
19567;DHT22;9930;49.240;8.548;2023-05-16T03:55:59;16.20;72.30
19567;DHT22;9930;49.240;8.548;2023-05-16T03:58:25;16.20;72.30
19567;DHT22;9930;49.240;8.548;2023-05-16T04:00:51;16.20;72.20
19567;DHT22;9930;49.240;8.548;2023-05-16T04:03:17;16.20;72.30
19567;DHT22;9930;49.240;8.548;2023-05-16T04:05:45;16.20;72.40
19567;DHT22;9930;49.240;8.548;2023-05-16T04:08:13;16.20;72.20
19567;DHT22;9930;49.240;8.548;2023-05-16T04:10:38;16.10;72.30
19567;DHT22;9930;49.240;8.548;2023-05-16T04:13:04;16.10;72.50
19567;DHT22;9930;49.240;8.548;2023-05-16T04:15:34;16.10;72.20
19567;DHT22;9930;49.240;8.548;2023-05-16T04:18:04;16.00;72.20
19567;DHT22;9930;49.240;8.548;2023-05-16T04:20:30;16.00;72.40
19567;DHT22;9930;49.240;8.548;2023-05-16T04:22:56;16.00;72.40
19567;DHT22;9930;49.240;8.548;2023-05-16T04:25:21;16.00;72.60
19567;DHT22;9930;49.240;8.548;2023-05-16T04:27:50;16.00;72.50
19567;DHT22;9930;49.240;8.548;2023-05-16T04:30:19;16.00;72.60
19567;DHT22;9930;49.240;8.548;2023-05-16T04:32:50;16.00;72.70
19567;DHT22;9930;49.240;8.548;2023-05-16T04:35:16;16.00;72.70
19567;DHT22;9930;49.240;8.548;2023-05-16T04:37:43;16.00;72.70
19567;DHT22;9930;49.240;8.548;2023-05-16T04:40:09;16.00;72.70
19567;DHT22;9930;49.240;8.548;2023-05-16T04:42:37;16.00;72.70
19567;DHT22;9930;49.240;8.548;2023-05-16T04:45:03;16.00;72.60
19567;DHT22;9930;49.240;8.548;2023-05-16T04:47:31;16.00;72.70
19567;DHT22;9930;49.240;8.548;2023-05-16T04:49:57;16.00;72.70
19567;DHT22;9930;49.240;8.548;2023-05-16T04:52:22;16.00;72.90
19567;DHT22;9930;49.240;8.548;2023-05-16T04:54:50;16.00;72.90
19567;DHT22;9930;49.240;8.548;2023-05-16T04:57:19;16.00;72.90
19567;DHT22;9930;49.240;8.548;2023-05-16T04:59:49;16.00;72.80
19567;DHT22;9930;49.240;8.548;2023-05-16T05:02:16;16.00;72.80
19567;DHT22;9930;49.240;8.548;2023-05-16T05:04:48;16.00;72.70
19567;DHT22;9930;49.240;8.548;2023-05-16T05:07:16;16.00;72.60
19567;DHT22;9930;49.240;8.548;2023-05-16T05:09:44;16.00;72.70
19567;DHT22;9930;49.240;8.548;2023-05-16T05:12:10;16.00;72.70
19567;DHT22;9930;49.240;8.548;2023-05-16T05:14:36;16.00;72.80
19567;DHT22;9930;49.240;8.548;2023-05-16T05:17:06;16.00;72.90
19567;DHT22;9930;49.240;8.548;2023-05-16T05:19:32;16.10;73.10
19567;DHT22;9930;49.240;8.548;2023-05-16T05:22:00;16.10;73.10
19567;DHT22;9930;49.240;8.548;2023-05-16T05:24:26;16.10;73.20
19567;DHT22;9930;49.240;8.548;2023-05-16T05:26:52;16.10;73.20
19567;DHT22;9930;49.240;8.548;2023-05-16T05:29:20;16.10;73.20
19567;DHT22;9930;49.240;8.548;2023-05-16T05:31:51;16.20;73.30
19567;DHT22;9930;49.240;8.548;2023-05-16T05:34:20;16.20;73.30
19567;DHT22;9930;49.240;8.548;2023-05-16T05:36:47;16.30;73.20
19567;DHT22;9930;49.240;8.548;2023-05-16T05:39:15;16.30;73.20
19567;DHT22;9930;49.240;8.548;2023-05-16T05:41:45;16.40;73.00
19567;DHT22;9930;49.240;8.548;2023-05-16T05:44:13;16.40;72.90
19567;DHT22;9930;49.240;8.548;2023-05-16T05:46:39;16.40;72.70
19567;DHT22;9930;49.240;8.548;2023-05-16T05:49:07;16.40;72.70
19567;DHT22;9930;49.240;8.548;2023-05-16T05:51:33;16.40;72.60
19567;DHT22;9930;49.240;8.548;2023-05-16T05:53:59;16.40;72.50
19567;DHT22;9930;49.240;8.548;2023-05-16T05:56:25;16.40;72.50
19567;DHT22;9930;49.240;8.548;2023-05-16T05:58:51;16.40;72.60
19567;DHT22;9930;49.240;8.548;2023-05-16T06:01:17;16.40;73.30
19567;DHT22;9930;49.240;8.548;2023-05-16T06:03:50;16.40;72.60
19567;DHT22;9930;49.240;8.548;2023-05-16T06:06:16;16.40;72.60
19567;DHT22;9930;49.240;8.548;2023-05-16T06:08:42;16.40;72.70
19567;DHT22;9930;49.240;8.548;2023-05-16T06:11:08;16.40;72.70
19567;DHT22;9930;49.240;8.548;2023-05-16T06:13:34;16.50;72.70
19567;DHT22;9930;49.240;8.548;2023-05-16T06:16:00;16.50;72.80
19567;DHT22;9930;49.240;8.548;2023-05-16T06:18:30;16.50;73.60
19567;DHT22;9930;49.240;8.548;2023-05-16T06:20:56;16.60;73.60
19567;DHT22;9930;49.240;8.548;2023-05-16T06:23:23;16.60;72.80
19567;DHT22;9930;49.240;8.548;2023-05-16T06:25:52;16.70;72.80
19567;DHT22;9930;49.240;8.548;2023-05-16T06:28:17;16.70;72.80
19567;DHT22;9930;49.240;8.548;2023-05-16T06:30:45;16.80;72.70
19567;DHT22;9930;49.240;8.548;2023-05-16T06:33:13;16.80;72.60
19567;DHT22;9930;49.240;8.548;2023-05-16T06:35:41;16.90;72.50
19567;DHT22;9930;49.240;8.548;2023-05-16T06:38:09;16.90;72.50
19567;DHT22;9930;49.240;8.548;2023-05-16T06:40:35;17.00;72.50
19567;DHT22;9930;49.240;8.548;2023-05-16T06:43:02;17.10;72.40
19567;DHT22;9930;49.240;8.548;2023-05-16T06:45:30;17.10;72.00
19567;DHT22;9930;49.240;8.548;2023-05-16T06:47:58;17.10;71.60
19567;DHT22;9930;49.240;8.548;2023-05-16T06:50:26;17.10;71.50
19567;DHT22;9930;49.240;8.548;2023-05-16T06:52:56;17.20;71.50
19567;DHT22;9930;49.240;8.548;2023-05-16T06:55:22;17.20;71.30
19567;DHT22;9930;49.240;8.548;2023-05-16T06:57:54;17.20;71.40
19567;DHT22;9930;49.240;8.548;2023-05-16T07:00:20;17.20;71.30
19567;DHT22;9930;49.240;8.548;2023-05-16T07:02:46;17.20;71.40
19567;DHT22;9930;49.240;8.548;2023-05-16T07:05:12;17.20;72.10
19567;DHT22;9930;49.240;8.548;2023-05-16T07:07:37;17.20;71.30
19567;DHT22;9930;49.240;8.548;2023-05-16T07:10:03;17.30;71.40
19567;DHT22;9930;49.240;8.548;2023-05-16T07:12:29;17.20;71.10
19567;DHT22;9930;49.240;8.548;2023-05-16T07:14:55;17.20;70.90
19567;DHT22;9930;49.240;8.548;2023-05-16T07:17:26;17.20;70.70
19567;DHT22;9930;49.240;8.548;2023-05-16T07:19:54;17.20;70.50
19567;DHT22;9930;49.240;8.548;2023-05-16T07:22:22;17.20;70.50
19567;DHT22;9930;49.240;8.548;2023-05-16T07:24:48;17.10;70.40
19567;DHT22;9930;49.240;8.548;2023-05-16T07:27:17;17.10;70.20
19567;DHT22;9930;49.240;8.548;2023-05-16T07:29:43;17.10;70.30
19567;DHT22;9930;49.240;8.548;2023-05-16T07:32:08;17.00;70.30
19567;DHT22;9930;49.240;8.548;2023-05-16T07:34:34;17.00;70.50
19567;DHT22;9930;49.240;8.548;2023-05-16T07:37:00;17.00;70.60
19567;DHT22;9930;49.240;8.548;2023-05-16T07:39:30;17.00;70.70
19567;DHT22;9930;49.240;8.548;2023-05-16T07:42:00;17.00;70.90
19567;DHT22;9930;49.240;8.548;2023-05-16T07:44:26;17.00;71.00
19567;DHT22;9930;49.240;8.548;2023-05-16T07:46:53;17.00;70.90
19567;DHT22;9930;49.240;8.548;2023-05-16T07:49:20;17.00;70.70
19567;DHT22;9930;49.240;8.548;2023-05-16T07:51:51;17.00;70.60
19567;DHT22;9930;49.240;8.548;2023-05-16T07:54:17;17.00;70.60
19567;DHT22;9930;49.240;8.548;2023-05-16T07:56:45;17.00;70.50
19567;DHT22;9930;49.240;8.548;2023-05-16T07:59:13;17.00;70.50
19567;DHT22;9930;49.240;8.548;2023-05-16T08:01:39;17.00;70.50
19567;DHT22;9930;49.240;8.548;2023-05-16T08:04:05;17.10;70.50
19567;DHT22;9930;49.240;8.548;2023-05-16T08:06:31;17.10;70.40
19567;DHT22;9930;49.240;8.548;2023-05-16T08:08:59;17.10;70.30
19567;DHT22;9930;49.240;8.548;2023-05-16T08:11:27;17.10;70.30
19567;DHT22;9930;49.240;8.548;2023-05-16T08:13:53;17.10;70.30
19567;DHT22;9930;49.240;8.548;2023-05-16T08:16:22;17.10;70.20
19567;DHT22;9930;49.240;8.548;2023-05-16T08:18:48;17.10;70.00
19567;DHT22;9930;49.240;8.548;2023-05-16T08:21:15;17.10;69.80
19567;DHT22;9930;49.240;8.548;2023-05-16T08:23:43;17.10;69.60
19567;DHT22;9930;49.240;8.548;2023-05-16T08:26:09;17.10;69.60
19567;DHT22;9930;49.240;8.548;2023-05-16T08:28:34;17.10;69.30
19567;DHT22;9930;49.240;8.548;2023-05-16T08:31:02;17.10;69.20
19567;DHT22;9930;49.240;8.548;2023-05-16T08:33:30;17.10;69.10
19567;DHT22;9930;49.240;8.548;2023-05-16T08:35:58;17.00;68.80
19567;DHT22;9930;49.240;8.548;2023-05-16T08:38:26;17.00;68.80
19567;DHT22;9930;49.240;8.548;2023-05-16T08:40:52;16.90;68.80
19567;DHT22;9930;49.240;8.548;2023-05-16T08:43:23;16.90;68.90
19567;DHT22;9930;49.240;8.548;2023-05-16T08:45:54;16.90;68.90
19567;DHT22;9930;49.240;8.548;2023-05-16T08:48:22;16.80;68.70
19567;DHT22;9930;49.240;8.548;2023-05-16T08:50:49;16.80;68.60
19567;DHT22;9930;49.240;8.548;2023-05-16T08:53:25;16.70;68.40
19567;DHT22;9930;49.240;8.548;2023-05-16T08:55:59;16.70;68.40
19567;DHT22;9930;49.240;8.548;2023-05-16T08:58:25;16.70;68.70
19567;DHT22;9930;49.240;8.548;2023-05-16T09:00:52;16.70;68.80
19567;DHT22;9930;49.240;8.548;2023-05-16T09:03:22;16.70;68.70
19567;DHT22;9930;49.240;8.548;2023-05-16T09:05:49;16.70;68.70
19567;DHT22;9930;49.240;8.548;2023-05-16T09:08:17;16.70;68.70
19567;DHT22;9930;49.240;8.548;2023-05-16T09:10:46;16.80;68.80
19567;DHT22;9930;49.240;8.548;2023-05-16T09:13:12;16.90;69.20
19567;DHT22;9930;49.240;8.548;2023-05-16T09:15:38;17.00;69.40
19567;DHT22;9930;49.240;8.548;2023-05-16T09:18:11;17.10;69.30
19567;DHT22;9930;49.240;8.548;2023-05-16T09:20:43;17.20;69.00
19567;DHT22;9930;49.240;8.548;2023-05-16T09:23:14;17.40;69.40
19567;DHT22;9930;49.240;8.548;2023-05-16T09:25:53;17.60;69.50
19567;DHT22;9930;49.240;8.548;2023-05-16T09:28:24;17.80;68.60
19567;DHT22;9930;49.240;8.548;2023-05-16T09:30:54;18.00;68.20
19567;DHT22;9930;49.240;8.548;2023-05-16T09:33:23;18.20;67.40
19567;DHT22;9930;49.240;8.548;2023-05-16T09:35:58;18.30;66.90
19567;DHT22;9930;49.240;8.548;2023-05-16T09:38:27;18.30;65.80
19567;DHT22;9930;49.240;8.548;2023-05-16T09:40:55;18.30;65.60
19567;DHT22;9930;49.240;8.548;2023-05-16T09:43:24;18.30;64.80
19567;DHT22;9930;49.240;8.548;2023-05-16T09:45:53;18.30;64.40
19567;DHT22;9930;49.240;8.548;2023-05-16T09:48:21;18.20;64.50
19567;DHT22;9930;49.240;8.548;2023-05-16T09:50:52;18.10;64.40
19567;DHT22;9930;49.240;8.548;2023-05-16T09:53:31;18.10;64.50
19567;DHT22;9930;49.240;8.548;2023-05-16T09:56:05;18.00;64.30
19567;DHT22;9930;49.240;8.548;2023-05-16T09:58:34;18.00;64.70
19567;DHT22;9930;49.240;8.548;2023-05-16T10:01:05;18.00;65.10
19567;DHT22;9930;49.240;8.548;2023-05-16T10:03:33;18.00;65.30
19567;DHT22;9930;49.240;8.548;2023-05-16T10:06:01;18.00;65.10
19567;DHT22;9930;49.240;8.548;2023-05-16T10:08:33;18.00;65.00
19567;DHT22;9930;49.240;8.548;2023-05-16T10:11:04;18.00;64.80
19567;DHT22;9930;49.240;8.548;2023-05-16T10:13:33;18.00;65.00
19567;DHT22;9930;49.240;8.548;2023-05-16T10:16:04;18.00;65.00
19567;DHT22;9930;49.240;8.548;2023-05-16T10:18:35;17.90;64.80
19567;DHT22;9930;49.240;8.548;2023-05-16T10:21:13;17.90;64.80
19567;DHT22;9930;49.240;8.548;2023-05-16T10:23:42;17.80;64.70
19567;DHT22;9930;49.240;8.548;2023-05-16T10:26:16;17.70;64.60
19567;DHT22;9930;49.240;8.548;2023-05-16T10:28:46;17.70;64.60
19567;DHT22;9930;49.240;8.548;2023-05-16T10:31:15;17.60;64.70
19567;DHT22;9930;49.240;8.548;2023-05-16T10:33:46;17.50;64.60
19567;DHT22;9930;49.240;8.548;2023-05-16T10:36:12;17.40;64.30
19567;DHT22;9930;49.240;8.548;2023-05-16T10:38:42;17.40;64.10
19567;DHT22;9930;49.240;8.548;2023-05-16T10:41:09;17.30;64.10
19567;DHT22;9930;49.240;8.548;2023-05-16T10:43:38;17.10;64.10
19567;DHT22;9930;49.240;8.548;2023-05-16T10:46:09;17.10;64.30
19567;DHT22;9930;49.240;8.548;2023-05-16T10:48:39;17.00;64.20
19567;DHT22;9930;49.240;8.548;2023-05-16T10:51:35;16.90;64.30
19567;DHT22;9930;49.240;8.548;2023-05-16T10:54:08;16.80;64.20
19567;DHT22;9930;49.240;8.548;2023-05-16T10:56:35;16.80;64.60
19567;DHT22;9930;49.240;8.548;2023-05-16T10:59:24;16.70;64.70
19567;DHT22;9930;49.240;8.548;2023-05-16T11:01:52;16.70;64.80
19567;DHT22;9930;49.240;8.548;2023-05-16T11:04:19;16.70;65.40
19567;DHT22;9930;49.240;8.548;2023-05-16T11:06:57;16.70;65.60
19567;DHT22;9930;49.240;8.548;2023-05-16T11:09:24;16.70;65.40
19567;DHT22;9930;49.240;8.548;2023-05-16T11:11:57;16.80;65.70
19567;DHT22;9930;49.240;8.548;2023-05-16T11:19:48;16.90;65.10
19567;DHT22;9930;49.240;8.548;2023-05-16T11:22:25;16.90;65.00
19567;DHT22;9930;49.240;8.548;2023-05-16T11:27:44;16.90;64.40
19567;DHT22;9930;49.240;8.548;2023-05-16T11:30:13;16.90;64.30
19567;DHT22;9930;49.240;8.548;2023-05-16T11:32:44;16.90;64.40
19567;DHT22;9930;49.240;8.548;2023-05-16T11:35:17;16.90;64.50
19567;DHT22;9930;49.240;8.548;2023-05-16T11:37:44;17.00;64.40
19567;DHT22;9930;49.240;8.548;2023-05-16T11:40:12;17.00;64.60
19567;DHT22;9930;49.240;8.548;2023-05-16T11:45:19;17.10;64.40
19567;DHT22;9930;49.240;8.548;2023-05-16T11:47:48;17.10;64.20
19567;DHT22;9930;49.240;8.548;2023-05-16T11:50:18;17.10;63.70
19567;DHT22;9930;49.240;8.548;2023-05-16T11:52:52;17.10;63.90
19567;DHT22;9930;49.240;8.548;2023-05-16T11:55:21;17.10;63.70
19567;DHT22;9930;49.240;8.548;2023-05-16T11:57:53;17.20;63.50
19567;DHT22;9930;49.240;8.548;2023-05-16T12:00:21;17.20;63.50
19567;DHT22;9930;49.240;8.548;2023-05-16T12:02:53;17.20;63.20
19567;DHT22;9930;49.240;8.548;2023-05-16T12:05:26;17.20;63.60
19567;DHT22;9930;49.240;8.548;2023-05-16T12:07:55;17.30;63.70
19567;DHT22;9930;49.240;8.548;2023-05-16T12:10:24;17.30;63.40
19567;DHT22;9930;49.240;8.548;2023-05-16T12:12:52;17.40;63.70
19567;DHT22;9930;49.240;8.548;2023-05-16T12:15:24;17.40;63.50
19567;DHT22;9930;49.240;8.548;2023-05-16T12:17:52;17.50;63.50
19567;DHT22;9930;49.240;8.548;2023-05-16T12:20:18;17.50;63.60
19567;DHT22;9930;49.240;8.548;2023-05-16T12:22:46;17.60;63.70
19567;DHT22;9930;49.240;8.548;2023-05-16T12:25:39;17.60;63.70
19567;DHT22;9930;49.240;8.548;2023-05-16T12:28:11;17.60;63.30
19567;DHT22;9930;49.240;8.548;2023-05-16T12:30:44;17.70;63.70
19567;DHT22;9930;49.240;8.548;2023-05-16T12:33:14;17.80;63.50
19567;DHT22;9930;49.240;8.548;2023-05-16T12:35:42;17.80;63.30
19567;DHT22;9930;49.240;8.548;2023-05-16T12:38:15;17.90;63.10
19567;DHT22;9930;49.240;8.548;2023-05-16T12:40:46;17.90;62.60
19567;DHT22;9930;49.240;8.548;2023-05-16T12:43:22;17.90;61.90
19567;DHT22;9930;49.240;8.548;2023-05-16T12:45:55;17.90;62.10
19567;DHT22;9930;49.240;8.548;2023-05-16T12:48:32;17.90;62.00
19567;DHT22;9930;49.240;8.548;2023-05-16T12:51:17;17.90;62.00
19567;DHT22;9930;49.240;8.548;2023-05-16T12:53:48;18.00;61.70
19567;DHT22;9930;49.240;8.548;2023-05-16T12:56:17;18.00;61.90
19567;DHT22;9930;49.240;8.548;2023-05-16T12:58:43;18.00;62.00
19567;DHT22;9930;49.240;8.548;2023-05-16T13:01:09;18.00;61.20
19567;DHT22;9930;49.240;8.548;2023-05-16T13:03:35;18.00;61.50
19567;DHT22;9930;49.240;8.548;2023-05-16T13:06:03;18.00;61.10
19567;DHT22;9930;49.240;8.548;2023-05-16T13:08:30;17.90;60.80
19567;DHT22;9930;49.240;8.548;2023-05-16T13:11:01;17.90;61.00
19567;DHT22;9930;49.240;8.548;2023-05-16T13:13:27;17.90;61.00
19567;DHT22;9930;49.240;8.548;2023-05-16T13:15:52;17.90;60.70
19567;DHT22;9930;49.240;8.548;2023-05-16T13:18:21;17.90;60.80
19567;DHT22;9930;49.240;8.548;2023-05-16T13:20:47;17.90;60.80
19567;DHT22;9930;49.240;8.548;2023-05-16T13:23:13;17.90;60.90
19567;DHT22;9930;49.240;8.548;2023-05-16T13:25:39;17.80;59.90
19567;DHT22;9930;49.240;8.548;2023-05-16T13:28:05;17.80;60.30
19567;DHT22;9930;49.240;8.548;2023-05-16T13:30:33;17.80;60.30
19567;DHT22;9930;49.240;8.548;2023-05-16T13:32:59;17.70;60.10
19567;DHT22;9930;49.240;8.548;2023-05-16T13:35:24;17.70;60.30
19567;DHT22;9930;49.240;8.548;2023-05-16T13:37:54;17.70;60.20
19567;DHT22;9930;49.240;8.548;2023-05-16T13:40:23;17.70;60.50
19567;DHT22;9930;49.240;8.548;2023-05-16T13:42:54;17.70;60.60
19567;DHT22;9930;49.240;8.548;2023-05-16T13:45:21;17.70;60.20
19567;DHT22;9930;49.240;8.548;2023-05-16T13:47:49;17.70;60.30
19567;DHT22;9930;49.240;8.548;2023-05-16T13:50:16;17.80;60.10
19567;DHT22;9930;49.240;8.548;2023-05-16T13:52:42;17.80;60.30
19567;DHT22;9930;49.240;8.548;2023-05-16T13:55:08;17.90;59.90
19567;DHT22;9930;49.240;8.548;2023-05-16T13:57:35;17.90;59.70
19567;DHT22;9930;49.240;8.548;2023-05-16T14:00:01;18.00;59.20
19567;DHT22;9930;49.240;8.548;2023-05-16T14:02:33;18.00;59.00
19567;DHT22;9930;49.240;8.548;2023-05-16T14:04:58;18.00;59.30
19567;DHT22;9930;49.240;8.548;2023-05-16T14:07:24;18.10;59.20
19567;DHT22;9930;49.240;8.548;2023-05-16T14:09:54;18.20;59.20
19567;DHT22;9930;49.240;8.548;2023-05-16T14:12:21;18.20;59.00
19567;DHT22;9930;49.240;8.548;2023-05-16T14:14:47;18.30;58.60
19567;DHT22;9930;49.240;8.548;2023-05-16T14:17:13;18.30;58.70
19567;DHT22;9930;49.240;8.548;2023-05-16T14:19:38;18.40;58.50
19567;DHT22;9930;49.240;8.548;2023-05-16T14:22:04;18.40;58.40
19567;DHT22;9930;49.240;8.548;2023-05-16T14:24:30;18.50;58.20
19567;DHT22;9930;49.240;8.548;2023-05-16T14:26:55;18.50;58.00
19567;DHT22;9930;49.240;8.548;2023-05-16T14:29:23;18.60;58.20
19567;DHT22;9930;49.240;8.548;2023-05-16T14:31:53;18.60;57.40
19567;DHT22;9930;49.240;8.548;2023-05-16T14:34:21;18.70;57.20
19567;DHT22;9930;49.240;8.548;2023-05-16T14:36:50;18.70;56.80
19567;DHT22;9930;49.240;8.548;2023-05-16T14:39:15;18.70;55.50
19567;DHT22;9930;49.240;8.548;2023-05-16T14:41:42;18.70;55.60
19567;DHT22;9930;49.240;8.548;2023-05-16T14:44:09;18.70;55.60
19567;DHT22;9930;49.240;8.548;2023-05-16T14:46:37;18.60;55.30
19567;DHT22;9930;49.240;8.548;2023-05-16T14:49:03;18.60;55.40
19567;DHT22;9930;49.240;8.548;2023-05-16T14:51:29;18.70;55.30
19567;DHT22;9930;49.240;8.548;2023-05-16T14:53:56;18.70;54.70
19567;DHT22;9930;49.240;8.548;2023-05-16T14:56:22;18.70;54.30
19567;DHT22;9930;49.240;8.548;2023-05-16T14:58:48;18.60;54.70
19567;DHT22;9930;49.240;8.548;2023-05-16T15:01:14;18.60;54.60
19567;DHT22;9930;49.240;8.548;2023-05-16T15:03:48;18.60;54.30
19567;DHT22;9930;49.240;8.548;2023-05-16T15:06:15;18.70;54.70
19567;DHT22;9930;49.240;8.548;2023-05-16T15:08:41;18.70;55.00
19567;DHT22;9930;49.240;8.548;2023-05-16T15:11:09;18.80;55.10
19567;DHT22;9930;49.240;8.548;2023-05-16T15:13:37;18.80;54.70
19567;DHT22;9930;49.240;8.548;2023-05-16T15:16:04;18.80;53.80
19567;DHT22;9930;49.240;8.548;2023-05-16T15:18:37;18.90;54.40
19567;DHT22;9930;49.240;8.548;2023-05-16T15:21:03;19.00;54.40
19567;DHT22;9930;49.240;8.548;2023-05-16T15:23:29;19.10;54.40
19567;DHT22;9930;49.240;8.548;2023-05-16T15:25:57;19.10;54.10
19567;DHT22;9930;49.240;8.548;2023-05-16T15:28:25;19.20;53.80
19567;DHT22;9930;49.240;8.548;2023-05-16T15:30:52;19.20;53.30
19567;DHT22;9930;49.240;8.548;2023-05-16T15:33:21;19.30;53.10
19567;DHT22;9930;49.240;8.548;2023-05-16T15:35:47;19.30;52.90
19567;DHT22;9930;49.240;8.548;2023-05-16T15:38:12;19.30;51.90
19567;DHT22;9930;49.240;8.548;2023-05-16T15:40:43;19.30;52.90
19567;DHT22;9930;49.240;8.548;2023-05-16T15:43:08;19.30;53.00
19567;DHT22;9930;49.240;8.548;2023-05-16T15:45:34;19.30;53.10
19567;DHT22;9930;49.240;8.548;2023-05-16T15:48:02;19.40;53.00
19567;DHT22;9930;49.240;8.548;2023-05-16T15:50:34;19.50;52.80
19567;DHT22;9930;49.240;8.548;2023-05-16T15:53:03;19.50;52.50
19567;DHT22;9930;49.240;8.548;2023-05-16T15:55:29;19.50;52.50
19567;DHT22;9930;49.240;8.548;2023-05-16T15:57:57;19.50;52.20
19567;DHT22;9930;49.240;8.548;2023-05-16T16:00:24;19.50;52.20
19567;DHT22;9930;49.240;8.548;2023-05-16T16:02:51;19.50;51.90
19567;DHT22;9930;49.240;8.548;2023-05-16T16:05:21;19.50;51.10
19567;DHT22;9930;49.240;8.548;2023-05-16T16:07:53;19.50;51.00
19567;DHT22;9930;49.240;8.548;2023-05-16T16:10:20;19.50;50.60
19567;DHT22;9930;49.240;8.548;2023-05-16T16:13:00;19.50;49.60
19567;DHT22;9930;49.240;8.548;2023-05-16T16:15:36;19.50;50.00
19567;DHT22;9930;49.240;8.548;2023-05-16T16:18:06;19.50;50.50
19567;DHT22;9930;49.240;8.548;2023-05-16T16:20:35;19.50;50.40
19567;DHT22;9930;49.240;8.548;2023-05-16T16:23:01;19.50;49.00